TCA7984 TNCA-SVMT
Flight info
| Callsign | TCA7984 |
|---|---|
| Flight time | 1h 17m |
| Altitude | 36000 |
| Route | ADRIV1F ADRIV A574 PJG UL219 MIDUR UL304 CBC UG443 BNA G443 MUN |
| Aircraft | B738/M-SDGIJ1LRWY/SB1 |
Departure
| Time | 2026-05-05 18:34 |
|---|---|
| Airport | Queen Beatrix International Airport (TNCA) |
Arrival
| Time | 2026-05-05 19:51 |
|---|---|
| Airport | José Tadeo Monagas International Airport (SVMT) |
| Time | Latitude | Longitude | Altitude | Speed | Heading |
|---|---|---|---|---|---|
| 2026-05-05 18:16 | 12.50361 | -70.01093 | 71 ft | 0 kts | 14° |
| 2026-05-05 18:25 | 12.50348 | -70.01096 | 70 ft | 2 kts | 12° |
| 2026-05-05 18:25 | 12.50333 | -70.01099 | 69 ft | 2 kts | 13° |
| 2026-05-05 18:26 | 12.50318 | -70.01103 | 69 ft | 2 kts | 13° |
| 2026-05-05 18:26 | 12.50304 | -70.01106 | 68 ft | 1 kts | 13° |
| 2026-05-05 18:26 | 12.50296 | -70.01109 | 68 ft | 0 kts | 11° |
| 2026-05-05 18:26 | 12.50288 | -70.01110 | 67 ft | 1 kts | 9° |
| 2026-05-05 18:27 | 12.50297 | -70.01109 | 68 ft | 1 kts | 14° |
| 2026-05-05 18:27 | 12.50299 | -70.01109 | 68 ft | 0 kts | 14° |
| 2026-05-05 18:28 | 12.50303 | -70.01109 | 68 ft | 1 kts | 327° |
| 2026-05-05 18:28 | 12.50318 | -70.01150 | 67 ft | 11 kts | 285° |
| 2026-05-05 18:28 | 12.50338 | -70.01230 | 64 ft | 14 kts | 282° |
| 2026-05-05 18:29 | 12.50335 | -70.01363 | 56 ft | 20 kts | 251° |
| 2026-05-05 18:29 | 12.50312 | -70.01491 | 51 ft | 19 kts | 276° |
| 2026-05-05 18:29 | 12.50341 | -70.01623 | 45 ft | 18 kts | 283° |
| 2026-05-05 18:29 | 12.50371 | -70.01751 | 40 ft | 19 kts | 283° |
| 2026-05-05 18:30 | 12.50402 | -70.01881 | 36 ft | 17 kts | 284° |
| 2026-05-05 18:30 | 12.50427 | -70.01984 | 34 ft | 13 kts | 285° |
| 2026-05-05 18:30 | 12.50447 | -70.02068 | 32 ft | 12 kts | 283° |
| 2026-05-05 18:30 | 12.50466 | -70.02146 | 31 ft | 12 kts | 284° |
| 2026-05-05 18:31 | 12.50488 | -70.02241 | 29 ft | 13 kts | 284° |
| 2026-05-05 18:31 | 12.50515 | -70.02354 | 27 ft | 18 kts | 284° |
| 2026-05-05 18:31 | 12.50538 | -70.02452 | 26 ft | 13 kts | 284° |
| 2026-05-05 18:31 | 12.50564 | -70.02555 | 26 ft | 15 kts | 284° |
| 2026-05-05 18:32 | 12.50566 | -70.02663 | 24 ft | 17 kts | 241° |
| 2026-05-05 18:32 | 12.50560 | -70.02675 | 24 ft | 0 kts | 239° |
| 2026-05-05 18:32 | 12.50549 | -70.02693 | 23 ft | 8 kts | 239° |
| 2026-05-05 18:32 | 12.50479 | -70.02727 | 23 ft | 13 kts | 179° |
| 2026-05-05 18:33 | 12.50425 | -70.02701 | 23 ft | 1 kts | 108° |
| 2026-05-05 18:33 | 12.50396 | -70.02590 | 24 ft | 33 kts | 104° |
| 2026-05-05 18:33 | 12.50309 | -70.02228 | 28 ft | 79 kts | 102° |
| 2026-05-05 18:33 | 12.50114 | -70.01415 | 52 ft | 148 kts | 105° |
| 2026-05-05 18:34 | 12.49839 | -70.00349 | 767 ft | 153 kts | 105° |
| 2026-05-05 18:34 | 12.49528 | -69.99328 | 1514 ft | 162 kts | 103° |
| 2026-05-05 18:34 | 12.49285 | -69.98122 | 2045 ft | 179 kts | 100° |
| 2026-05-05 18:34 | 12.49023 | -69.96791 | 2607 ft | 197 kts | 102° |
| 2026-05-05 18:35 | 12.48709 | -69.95425 | 3437 ft | 198 kts | 104° |
| 2026-05-05 18:35 | 12.48390 | -69.94093 | 4247 ft | 199 kts | 104° |
| 2026-05-05 18:35 | 12.48052 | -69.92709 | 5016 ft | 202 kts | 104° |
| 2026-05-05 18:35 | 12.47710 | -69.91297 | 5753 ft | 205 kts | 104° |
| 2026-05-05 18:36 | 12.47371 | -69.89885 | 6471 ft | 208 kts | 104° |
| 2026-05-05 18:36 | 12.47021 | -69.88423 | 7187 ft | 211 kts | 104° |
| 2026-05-05 18:36 | 12.46667 | -69.86944 | 7902 ft | 216 kts | 104° |
| 2026-05-05 18:36 | 12.46310 | -69.85456 | 8647 ft | 218 kts | 104° |
| 2026-05-05 18:37 | 12.45943 | -69.83929 | 9356 ft | 222 kts | 104° |
| 2026-05-05 18:37 | 12.45575 | -69.82400 | 10053 ft | 225 kts | 105° |
| 2026-05-05 18:37 | 12.45171 | -69.80854 | 10760 ft | 227 kts | 106° |
| 2026-05-05 18:37 | 12.44734 | -69.79287 | 11451 ft | 230 kts | 106° |
| 2026-05-05 18:38 | 12.44290 | -69.77709 | 12128 ft | 232 kts | 106° |
| 2026-05-05 18:38 | 12.43842 | -69.76105 | 12782 ft | 235 kts | 106° |
| 2026-05-05 18:38 | 12.43393 | -69.74486 | 13448 ft | 237 kts | 105° |
| 2026-05-05 18:38 | 12.42939 | -69.72840 | 14032 ft | 241 kts | 106° |
| 2026-05-05 18:39 | 12.42483 | -69.71186 | 14682 ft | 242 kts | 105° |
| 2026-05-05 18:39 | 12.42019 | -69.69501 | 15260 ft | 247 kts | 105° |
| 2026-05-05 18:39 | 12.41552 | -69.67811 | 15886 ft | 249 kts | 105° |
| 2026-05-05 18:39 | 12.41072 | -69.66074 | 16439 ft | 253 kts | 105° |
| 2026-05-05 18:40 | 12.40593 | -69.64336 | 17040 ft | 253 kts | 105° |
| 2026-05-05 18:40 | 12.40117 | -69.62614 | 17674 ft | 252 kts | 105° |
| 2026-05-05 18:40 | 12.39631 | -69.60854 | 18174 ft | 257 kts | 105° |
| 2026-05-05 18:40 | 12.39100 | -69.59077 | 18662 ft | 262 kts | 108° |
| 2026-05-05 18:41 | 12.38496 | -69.57282 | 19149 ft | 266 kts | 108° |
| 2026-05-05 18:41 | 12.37879 | -69.55495 | 19591 ft | 270 kts | 108° |
| 2026-05-05 18:41 | 12.37241 | -69.53640 | 20047 ft | 275 kts | 108° |
| 2026-05-05 18:41 | 12.36600 | -69.51761 | 20494 ft | 280 kts | 108° |
| 2026-05-05 18:42 | 12.35952 | -69.49849 | 20924 ft | 284 kts | 107° |
| 2026-05-05 18:42 | 12.35299 | -69.47918 | 21362 ft | 287 kts | 107° |
| 2026-05-05 18:42 | 12.34642 | -69.45970 | 21750 ft | 292 kts | 107° |
| 2026-05-05 18:42 | 12.33976 | -69.43995 | 22184 ft | 295 kts | 107° |
| 2026-05-05 18:43 | 12.33294 | -69.41972 | 22572 ft | 300 kts | 107° |
| 2026-05-05 18:43 | 12.32608 | -69.39941 | 23024 ft | 301 kts | 107° |
| 2026-05-05 18:43 | 12.31914 | -69.37888 | 23446 ft | 303 kts | 107° |
| 2026-05-05 18:43 | 12.31228 | -69.35854 | 23865 ft | 304 kts | 107° |
| 2026-05-05 18:44 | 12.30529 | -69.33756 | 24081 ft | 314 kts | 107° |
| 2026-05-05 18:44 | 12.29811 | -69.31588 | 24217 ft | 327 kts | 107° |
| 2026-05-05 18:44 | 12.29060 | -69.29319 | 24352 ft | 339 kts | 107° |
| 2026-05-05 18:44 | 12.28285 | -69.26980 | 24481 ft | 352 kts | 107° |
| 2026-05-05 18:45 | 12.27479 | -69.24554 | 24611 ft | 364 kts | 107° |
| 2026-05-05 18:45 | 12.26645 | -69.22046 | 24770 ft | 376 kts | 107° |
| 2026-05-05 18:45 | 12.25794 | -69.19492 | 25139 ft | 380 kts | 107° |
| 2026-05-05 18:45 | 12.24934 | -69.16914 | 25638 ft | 380 kts | 107° |
| 2026-05-05 18:46 | 12.24068 | -69.14320 | 26139 ft | 379 kts | 107° |
| 2026-05-05 18:46 | 12.23212 | -69.11756 | 26611 ft | 379 kts | 107° |
| 2026-05-05 18:46 | 12.22360 | -69.09203 | 27260 ft | 373 kts | 107° |
| 2026-05-05 18:46 | 12.21523 | -69.06693 | 27689 ft | 373 kts | 107° |
| 2026-05-05 18:47 | 12.20676 | -69.04131 | 28031 ft | 376 kts | 106° |
| 2026-05-05 18:47 | 12.19963 | -69.01559 | 28385 ft | 377 kts | 101° |
| 2026-05-05 18:47 | 12.19469 | -68.98901 | 28732 ft | 378 kts | 96° |
| 2026-05-05 18:47 | 12.19126 | -68.96202 | 29072 ft | 380 kts | 94° |
| 2026-05-05 18:48 | 12.18851 | -68.93487 | 29404 ft | 382 kts | 94° |
| 2026-05-05 18:48 | 12.18597 | -68.90735 | 29726 ft | 385 kts | 94° |
| 2026-05-05 18:48 | 12.18346 | -68.87988 | 30043 ft | 387 kts | 94° |
| 2026-05-05 18:48 | 12.18088 | -68.85229 | 30359 ft | 389 kts | 94° |
| 2026-05-05 18:49 | 12.17821 | -68.82440 | 30685 ft | 391 kts | 94° |
| 2026-05-05 18:49 | 12.17552 | -68.79681 | 30968 ft | 394 kts | 94° |
| 2026-05-05 18:49 | 12.17273 | -68.76862 | 31271 ft | 395 kts | 94° |
| 2026-05-05 18:49 | 12.16990 | -68.74017 | 31548 ft | 398 kts | 94° |
| 2026-05-05 18:50 | 12.16709 | -68.71207 | 31848 ft | 399 kts | 95° |
| 2026-05-05 18:50 | 12.16421 | -68.68337 | 32160 ft | 400 kts | 95° |
| 2026-05-05 18:50 | 12.16133 | -68.65472 | 32418 ft | 403 kts | 94° |
| 2026-05-05 18:50 | 12.15846 | -68.62622 | 32699 ft | 404 kts | 95° |
| 2026-05-05 18:51 | 12.15555 | -68.59727 | 32961 ft | 407 kts | 94° |
| 2026-05-05 18:51 | 12.15261 | -68.56810 | 33224 ft | 409 kts | 95° |
| 2026-05-05 18:51 | 12.14968 | -68.53913 | 33508 ft | 411 kts | 94° |
| 2026-05-05 18:51 | 12.14682 | -68.51083 | 33790 ft | 412 kts | 95° |
| 2026-05-05 18:52 | 12.14394 | -68.48235 | 34048 ft | 414 kts | 95° |
| 2026-05-05 18:52 | 12.14095 | -68.45283 | 34325 ft | 415 kts | 95° |
| 2026-05-05 18:52 | 12.13795 | -68.42315 | 34611 ft | 416 kts | 95° |
| 2026-05-05 18:52 | 12.13495 | -68.39359 | 34863 ft | 418 kts | 95° |
| 2026-05-05 18:53 | 12.13190 | -68.36352 | 35123 ft | 420 kts | 95° |
| 2026-05-05 18:53 | 12.12887 | -68.33368 | 35358 ft | 421 kts | 95° |
| 2026-05-05 18:53 | 12.12584 | -68.30392 | 35619 ft | 422 kts | 95° |
| 2026-05-05 18:53 | 12.12278 | -68.27396 | 35845 ft | 424 kts | 95° |
| 2026-05-05 18:54 | 12.11970 | -68.24372 | 36070 ft | 426 kts | 95° |
| 2026-05-05 18:54 | 12.11658 | -68.21320 | 36289 ft | 427 kts | 95° |
| 2026-05-05 18:54 | 12.11351 | -68.18290 | 36475 ft | 430 kts | 95° |
| 2026-05-05 18:54 | 12.11044 | -68.15236 | 36713 ft | 430 kts | 95° |
| 2026-05-05 18:55 | 12.10736 | -68.12157 | 36912 ft | 432 kts | 95° |
| 2026-05-05 18:55 | 12.10430 | -68.09100 | 36957 ft | 435 kts | 95° |
| 2026-05-05 18:55 | 12.09809 | -68.02914 | 36954 ft | 432 kts | 95° |
| 2026-05-05 18:56 | 12.09188 | -67.96747 | 36951 ft | 433 kts | 95° |
| 2026-05-05 18:56 | 12.08569 | -67.90621 | 36949 ft | 432 kts | 95° |
| 2026-05-05 18:57 | 12.07883 | -67.84500 | 36948 ft | 431 kts | 98° |
| 2026-05-05 18:57 | 12.06512 | -67.78504 | 36947 ft | 431 kts | 106° |
| 2026-05-05 18:58 | 12.04690 | -67.72644 | 36939 ft | 432 kts | 108° |
| 2026-05-05 18:58 | 12.02775 | -67.66760 | 36931 ft | 432 kts | 108° |
| 2026-05-05 18:59 | 12.00892 | -67.60918 | 36933 ft | 432 kts | 107° |
| 2026-05-05 18:59 | 11.99023 | -67.55048 | 36935 ft | 431 kts | 107° |
| 2026-05-05 19:00 | 11.97170 | -67.49184 | 36936 ft | 431 kts | 107° |
| 2026-05-05 19:00 | 11.95324 | -67.43326 | 36934 ft | 429 kts | 107° |
| 2026-05-05 19:01 | 11.93488 | -67.37502 | 36937 ft | 429 kts | 107° |
| 2026-05-05 19:01 | 11.91641 | -67.31650 | 36938 ft | 430 kts | 107° |
| 2026-05-05 19:02 | 11.89802 | -67.25832 | 36938 ft | 429 kts | 107° |
| 2026-05-05 19:02 | 11.87972 | -67.20042 | 36937 ft | 430 kts | 107° |
| 2026-05-05 19:03 | 11.86115 | -67.14172 | 36942 ft | 429 kts | 107° |
| 2026-05-05 19:03 | 11.84277 | -67.08366 | 36944 ft | 428 kts | 107° |
| 2026-05-05 19:04 | 11.82429 | -67.02529 | 36943 ft | 427 kts | 107° |
| 2026-05-05 19:04 | 11.80605 | -66.96775 | 36939 ft | 426 kts | 107° |
| 2026-05-05 19:05 | 11.78290 | -66.91139 | 36941 ft | 429 kts | 121° |
| 2026-05-05 19:05 | 11.76474 | -66.88699 | 36944 ft | 431 kts | 133° |
| 2026-05-05 19:05 | 11.74281 | -66.86635 | 36946 ft | 431 kts | 141° |
| 2026-05-05 19:06 | 11.69396 | -66.82986 | 36943 ft | 431 kts | 145° |
| 2026-05-05 19:06 | 11.64362 | -66.79512 | 36939 ft | 430 kts | 145° |
| 2026-05-05 19:07 | 11.59370 | -66.76085 | 36943 ft | 431 kts | 145° |
| 2026-05-05 19:07 | 11.54361 | -66.72617 | 36942 ft | 431 kts | 145° |
| 2026-05-05 19:08 | 11.49379 | -66.69138 | 36939 ft | 429 kts | 144° |
| 2026-05-05 19:08 | 11.44422 | -66.65664 | 36939 ft | 430 kts | 144° |
| 2026-05-05 19:09 | 11.39448 | -66.62175 | 36938 ft | 429 kts | 144° |
| 2026-05-05 19:09 | 11.34468 | -66.58682 | 36680 ft | 441 kts | 144° |
| 2026-05-05 19:10 | 11.31890 | -66.56874 | 36524 ft | 449 kts | 144° |
| 2026-05-05 19:10 | 11.29287 | -66.55051 | 36676 ft | 450 kts | 144° |
| 2026-05-05 19:10 | 11.26672 | -66.53220 | 36823 ft | 452 kts | 144° |
| 2026-05-05 19:10 | 11.24080 | -66.51406 | 36944 ft | 454 kts | 144° |
| 2026-05-05 19:11 | 11.18800 | -66.47710 | 36749 ft | 457 kts | 144° |
| 2026-05-05 19:11 | 11.13503 | -66.44001 | 36942 ft | 461 kts | 144° |
| 2026-05-05 19:12 | 11.08205 | -66.40277 | 36934 ft | 456 kts | 144° |
| 2026-05-05 19:12 | 11.02951 | -66.36582 | 36930 ft | 456 kts | 144° |
| 2026-05-05 19:13 | 10.97708 | -66.32894 | 36932 ft | 456 kts | 144° |
| 2026-05-05 19:13 | 10.92431 | -66.29182 | 36927 ft | 455 kts | 144° |
| 2026-05-05 19:14 | 10.87166 | -66.25481 | 36929 ft | 455 kts | 144° |
| 2026-05-05 19:14 | 10.81931 | -66.21803 | 36916 ft | 456 kts | 144° |
| 2026-05-05 19:15 | 10.76627 | -66.18139 | 36917 ft | 457 kts | 145° |
| 2026-05-05 19:15 | 10.71292 | -66.14513 | 36919 ft | 457 kts | 145° |
| 2026-05-05 19:16 | 10.65980 | -66.10909 | 36921 ft | 457 kts | 145° |
| 2026-05-05 19:16 | 10.60757 | -66.07165 | 36917 ft | 455 kts | 137° |
| 2026-05-05 19:17 | 10.56739 | -66.02180 | 36918 ft | 451 kts | 116° |
| 2026-05-05 19:17 | 10.54264 | -65.96309 | 36916 ft | 449 kts | 108° |
| 2026-05-05 19:18 | 10.52226 | -65.90306 | 36916 ft | 449 kts | 107° |
| 2026-05-05 19:18 | 10.50239 | -65.84209 | 36919 ft | 450 kts | 107° |
| 2026-05-05 19:19 | 10.48250 | -65.78172 | 36918 ft | 449 kts | 107° |
| 2026-05-05 19:19 | 10.46235 | -65.72137 | 36919 ft | 449 kts | 107° |
| 2026-05-05 19:20 | 10.44198 | -65.66083 | 36920 ft | 448 kts | 107° |
| 2026-05-05 19:20 | 10.42170 | -65.60075 | 36919 ft | 448 kts | 107° |
| 2026-05-05 19:21 | 10.40140 | -65.54073 | 36924 ft | 448 kts | 107° |
| 2026-05-05 19:21 | 10.38102 | -65.48054 | 36924 ft | 448 kts | 107° |
| 2026-05-05 19:22 | 10.36058 | -65.42022 | 36927 ft | 448 kts | 107° |
| 2026-05-05 19:22 | 10.34018 | -65.36005 | 36920 ft | 449 kts | 107° |
| 2026-05-05 19:23 | 10.31977 | -65.29990 | 36925 ft | 448 kts | 107° |
| 2026-05-05 19:23 | 10.29936 | -65.23981 | 36926 ft | 449 kts | 107° |
| 2026-05-05 19:24 | 10.27878 | -65.17925 | 36925 ft | 449 kts | 107° |
| 2026-05-05 19:24 | 10.25833 | -65.11910 | 36929 ft | 448 kts | 107° |
| 2026-05-05 19:25 | 10.23796 | -65.05923 | 36925 ft | 447 kts | 107° |
| 2026-05-05 19:25 | 10.22779 | -65.02937 | 36692 ft | 442 kts | 107° |
| 2026-05-05 19:25 | 10.21775 | -64.99992 | 36276 ft | 437 kts | 107° |
| 2026-05-05 19:26 | 10.20774 | -64.97035 | 35744 ft | 436 kts | 107° |
| 2026-05-05 19:26 | 10.19789 | -64.94111 | 35090 ft | 438 kts | 107° |
| 2026-05-05 19:26 | 10.18806 | -64.91193 | 34410 ft | 440 kts | 107° |
| 2026-05-05 19:26 | 10.17800 | -64.88210 | 33779 ft | 440 kts | 107° |
| 2026-05-05 19:27 | 10.16810 | -64.85290 | 33382 ft | 436 kts | 107° |
| 2026-05-05 19:27 | 10.15825 | -64.82388 | 32924 ft | 433 kts | 107° |
| 2026-05-05 19:27 | 10.14841 | -64.79491 | 32454 ft | 431 kts | 107° |
| 2026-05-05 19:27 | 10.13860 | -64.76607 | 32003 ft | 430 kts | 107° |
| 2026-05-05 19:28 | 10.12869 | -64.73698 | 31525 ft | 429 kts | 107° |
| 2026-05-05 19:28 | 10.11898 | -64.70833 | 31036 ft | 429 kts | 107° |
| 2026-05-05 19:28 | 10.11002 | -64.67923 | 30546 ft | 428 kts | 103° |
| 2026-05-05 19:28 | 10.10285 | -64.64985 | 30059 ft | 427 kts | 101° |
| 2026-05-05 19:29 | 10.09664 | -64.62019 | 29569 ft | 429 kts | 100° |
| 2026-05-05 19:29 | 10.09068 | -64.58999 | 29072 ft | 433 kts | 99° |
| 2026-05-05 19:29 | 10.08483 | -64.55991 | 28575 ft | 437 kts | 100° |
| 2026-05-05 19:29 | 10.07884 | -64.52924 | 28077 ft | 441 kts | 100° |
| 2026-05-05 19:30 | 10.07282 | -64.49871 | 27520 ft | 442 kts | 100° |
| 2026-05-05 19:30 | 10.06672 | -64.46822 | 27020 ft | 426 kts | 100° |
| 2026-05-05 19:30 | 10.06082 | -64.43896 | 26527 ft | 412 kts | 100° |
| 2026-05-05 19:30 | 10.05518 | -64.41115 | 26060 ft | 398 kts | 101° |
| 2026-05-05 19:31 | 10.04958 | -64.38362 | 25627 ft | 392 kts | 101° |
| 2026-05-05 19:31 | 10.04394 | -64.35591 | 25127 ft | 399 kts | 101° |
| 2026-05-05 19:31 | 10.03794 | -64.32839 | 24628 ft | 399 kts | 103° |
| 2026-05-05 19:31 | 10.02996 | -64.30104 | 24146 ft | 395 kts | 110° |
| 2026-05-05 19:32 | 10.01897 | -64.27563 | 23650 ft | 393 kts | 116° |
| 2026-05-05 19:32 | 10.00581 | -64.25092 | 23171 ft | 390 kts | 120° |
| 2026-05-05 19:32 | 9.99198 | -64.22703 | 22688 ft | 387 kts | 121° |
| 2026-05-05 19:32 | 9.97902 | -64.20526 | 22251 ft | 384 kts | 121° |
| 2026-05-05 19:33 | 9.96502 | -64.18179 | 21771 ft | 381 kts | 121° |
| 2026-05-05 19:33 | 9.95134 | -64.15866 | 21288 ft | 378 kts | 121° |
| 2026-05-05 19:33 | 9.93784 | -64.13568 | 20813 ft | 375 kts | 120° |
| 2026-05-05 19:33 | 9.92423 | -64.11234 | 20334 ft | 372 kts | 120° |
| 2026-05-05 19:34 | 9.91118 | -64.08984 | 19875 ft | 369 kts | 119° |
| 2026-05-05 19:34 | 9.89808 | -64.06717 | 19382 ft | 366 kts | 119° |
| 2026-05-05 19:34 | 9.88507 | -64.04460 | 18925 ft | 361 kts | 119° |
| 2026-05-05 19:35 | 9.85981 | -64.00065 | 18009 ft | 354 kts | 118° |
| 2026-05-05 19:35 | 9.84734 | -63.97894 | 17517 ft | 351 kts | 118° |
| 2026-05-05 19:35 | 9.83503 | -63.95751 | 17051 ft | 347 kts | 118° |
| 2026-05-05 19:35 | 9.82281 | -63.93624 | 16588 ft | 344 kts | 118° |
| 2026-05-05 19:36 | 9.81085 | -63.91542 | 16108 ft | 341 kts | 118° |
| 2026-05-05 19:36 | 9.79883 | -63.89453 | 15640 ft | 337 kts | 118° |
| 2026-05-05 19:36 | 9.78697 | -63.87392 | 15208 ft | 333 kts | 118° |
| 2026-05-05 19:36 | 9.77524 | -63.85353 | 14769 ft | 330 kts | 118° |
| 2026-05-05 19:37 | 9.76378 | -63.83360 | 14304 ft | 327 kts | 118° |
| 2026-05-05 19:37 | 9.75225 | -63.81358 | 13866 ft | 323 kts | 118° |
| 2026-05-05 19:37 | 9.74082 | -63.79371 | 13451 ft | 319 kts | 118° |
| 2026-05-05 19:37 | 9.72969 | -63.77438 | 13021 ft | 315 kts | 118° |
| 2026-05-05 19:38 | 9.71862 | -63.75515 | 12636 ft | 311 kts | 118° |
| 2026-05-05 19:38 | 9.70765 | -63.73610 | 12201 ft | 309 kts | 118° |
| 2026-05-05 19:38 | 9.69670 | -63.71709 | 11779 ft | 306 kts | 118° |
| 2026-05-05 19:38 | 9.68605 | -63.69862 | 11382 ft | 303 kts | 118° |
| 2026-05-05 19:39 | 9.67534 | -63.68003 | 10978 ft | 301 kts | 118° |
| 2026-05-05 19:39 | 9.66466 | -63.66150 | 10558 ft | 299 kts | 118° |
| 2026-05-05 19:39 | 9.65419 | -63.64333 | 10226 ft | 294 kts | 118° |
| 2026-05-05 19:39 | 9.64406 | -63.62578 | 10091 ft | 281 kts | 118° |
| 2026-05-05 19:40 | 9.63425 | -63.60876 | 9855 ft | 274 kts | 118° |
| 2026-05-05 19:40 | 9.62447 | -63.59178 | 9464 ft | 273 kts | 118° |
| 2026-05-05 19:40 | 9.61489 | -63.57515 | 9132 ft | 270 kts | 118° |
| 2026-05-05 19:40 | 9.60550 | -63.55885 | 8917 ft | 263 kts | 118° |
| 2026-05-05 19:41 | 9.59625 | -63.54284 | 8695 ft | 258 kts | 118° |
| 2026-05-05 19:41 | 9.58725 | -63.52726 | 8447 ft | 252 kts | 118° |
| 2026-05-05 19:41 | 9.57829 | -63.51173 | 8218 ft | 245 kts | 118° |
| 2026-05-05 19:41 | 9.56970 | -63.49685 | 8015 ft | 239 kts | 118° |
| 2026-05-05 19:42 | 9.56126 | -63.48223 | 7766 ft | 236 kts | 118° |
| 2026-05-05 19:42 | 9.55296 | -63.46783 | 7492 ft | 234 kts | 118° |
| 2026-05-05 19:42 | 9.54465 | -63.45344 | 7222 ft | 232 kts | 118° |
| 2026-05-05 19:42 | 9.53650 | -63.43932 | 6984 ft | 229 kts | 118° |
| 2026-05-05 19:43 | 9.52929 | -63.42491 | 6751 ft | 224 kts | 108° |
| 2026-05-05 19:43 | 9.52765 | -63.40959 | 6598 ft | 215 kts | 76° |
| 2026-05-05 19:43 | 9.53465 | -63.39630 | 6295 ft | 216 kts | 51° |
| 2026-05-05 19:43 | 9.54519 | -63.38520 | 5903 ft | 217 kts | 47° |
| 2026-05-05 19:44 | 9.55550 | -63.37434 | 5615 ft | 208 kts | 49° |
| 2026-05-05 19:44 | 9.56511 | -63.36362 | 5345 ft | 199 kts | 51° |
| 2026-05-05 19:44 | 9.57418 | -63.35319 | 5085 ft | 191 kts | 51° |
| 2026-05-05 19:44 | 9.58280 | -63.34326 | 4853 ft | 183 kts | 51° |
| 2026-05-05 19:45 | 9.59126 | -63.33358 | 4609 ft | 181 kts | 51° |
| 2026-05-05 19:45 | 9.59975 | -63.32399 | 4364 ft | 179 kts | 50° |
| 2026-05-05 19:45 | 9.60805 | -63.31464 | 4116 ft | 178 kts | 51° |
| 2026-05-05 19:45 | 9.61631 | -63.30532 | 3875 ft | 175 kts | 51° |
| 2026-05-05 19:46 | 9.62448 | -63.29600 | 3646 ft | 173 kts | 51° |
| 2026-05-05 19:46 | 9.63252 | -63.28689 | 3430 ft | 169 kts | 50° |
| 2026-05-05 19:46 | 9.64043 | -63.27797 | 3181 ft | 167 kts | 51° |
| 2026-05-05 19:46 | 9.64809 | -63.26924 | 2980 ft | 158 kts | 51° |
| 2026-05-05 19:47 | 9.65519 | -63.26112 | 2744 ft | 146 kts | 51° |
| 2026-05-05 19:47 | 9.66180 | -63.25359 | 2588 ft | 137 kts | 51° |
| 2026-05-05 19:47 | 9.66822 | -63.24629 | 2400 ft | 139 kts | 51° |
| 2026-05-05 19:47 | 9.67467 | -63.23897 | 2217 ft | 135 kts | 51° |
| 2026-05-05 19:48 | 9.68088 | -63.23185 | 2171 ft | 134 kts | 51° |
| 2026-05-05 19:48 | 9.68716 | -63.22466 | 2178 ft | 136 kts | 51° |
| 2026-05-05 19:48 | 9.69368 | -63.21727 | 2167 ft | 141 kts | 51° |
| 2026-05-05 19:48 | 9.70035 | -63.20971 | 1861 ft | 144 kts | 51° |
| 2026-05-05 19:49 | 9.70696 | -63.20226 | 1464 ft | 137 kts | 51° |
| 2026-05-05 19:49 | 9.71123 | -63.19739 | 1237 ft | 133 kts | 51° |
| 2026-05-05 19:49 | 9.71952 | -63.18791 | 941 ft | 135 kts | 51° |
| 2026-05-05 19:49 | 9.72582 | -63.18073 | 734 ft | 134 kts | 50° |
| 2026-05-05 19:50 | 9.73203 | -63.17359 | 553 ft | 135 kts | 50° |
| 2026-05-05 19:50 | 9.73805 | -63.16619 | 447 ft | 133 kts | 53° |
| 2026-05-05 19:50 | 9.74435 | -63.15884 | 270 ft | 141 kts | 47° |
| 2026-05-05 19:50 | 9.75099 | -63.15126 | 209 ft | 142 kts | 51° |
| 2026-05-05 19:51 | 9.75697 | -63.14392 | 196 ft | 122 kts | 53° |
| 2026-05-05 19:51 | 9.75993 | -63.13946 | 192 ft | 34 kts | 61° |
| 2026-05-05 19:51 | 9.76015 | -63.13907 | 191 ft | 1 kts | 58° |
| 2026-05-05 19:51 | 9.76009 | -63.13915 | 191 ft | 1 kts | 53° |
| 2026-05-05 19:52 | 9.76003 | -63.13923 | 191 ft | 1 kts | 49° |